首页
METAR-TAF:

METAR-TAF

机场 :

威斯巴登, 德国

纬度: 50-03N, 经度: 008-20E, 海拔: 140米

当前天气观测

该预报发布于45分钟前的16:56 UTC
风速4节,风向
温度 22°C
湿度 43%
气压 1013 hPa
能见度10公里或以上
少量云层高于7000英尺
散云层高于9000英尺

METAR: ETOU 241656Z 18004KT 9999 FEW070 SCT090 22/09 A2991 RMK AO2A SLP128 T02240085 $

时间: 19:41 (17:41 UTC)

预报

该预报发布于12小时和53分钟前的04:48 UTC
预报有效从24日的 04点(UTC)到 25日的 09点(UTC)
风速6节,风向多变
能见度10公里或以上
多云层高于12000英尺
成为
从 25日的 01点(UTC)到 25日的 02点(UTC)
风速9节,风向西北
能見度: 2419
多云层高于4000英尺
小阵雨

TAF: ETOU 240448Z 2404/2509 VRB06KT 9999 BKN120 QNH2999INS BECMG 2501/2502 32009KT 8000 -SHRA BKN040 QNH2998INS TX21/2412Z TN06/2503Z LAST NO AMDS AFT 2404 NEXT 2419

超过4000个机场的气象观测和天气预报(METAR&TAF报告)。

可查询的气象台以黄色和红色小点在地图上表示。

将鼠标移到小点上方,可查看气象台名称。

然后点击查看天气观测和预报。

如需切换地图:点击带黑十字的绿色按钮放大地图;点击带横线的绿色按钮缩小地图;或者点击绿色箭头查看邻近地区的地图。


METAR-TAF: